createdAt,value
2022-09-28T00:01:13.661Z,99009.03
2022-09-28T00:03:41.017Z,99003.31
2022-09-28T00:06:12.441Z,99000.16
2022-09-28T00:08:40.006Z,99005.69
2022-09-28T00:11:10.295Z,99002.25
2022-09-28T00:13:38.012Z,99000.78
2022-09-28T00:16:07.953Z,98999.03
2022-09-28T00:18:35.768Z,98994.31
2022-09-28T00:21:11.530Z,99000.78
2022-09-28T00:23:39.883Z,99000.31
2022-09-28T00:26:07.282Z,98992.75
2022-09-28T00:28:34.747Z,98987.84
2022-09-28T00:31:02.245Z,98990.72
2022-09-28T00:33:29.692Z,98993.38
2022-09-28T00:35:58.302Z,98993.53
2022-09-28T00:38:29.559Z,98978.69
2022-09-28T00:40:56.923Z,98979.63
2022-09-28T00:43:25.122Z,98981.69
2022-09-28T00:46:12.637Z,98985.00
2022-09-28T00:48:45.738Z,98980.75
2022-09-28T00:51:13.579Z,98974.91
2022-09-28T00:53:44.310Z,98982.31
2022-09-28T00:56:15.490Z,98978.22
2022-09-28T00:58:48.297Z,98988.03
2022-09-28T01:01:16.523Z,98990.22
2022-09-28T01:03:45.076Z,98987.88
2022-09-28T01:06:20.821Z,98991.50
2022-09-28T01:08:51.724Z,98984.84
2022-09-28T01:11:19.840Z,98990.53
2022-09-28T01:13:51.298Z,98982.34
2022-09-28T01:16:39.849Z,98989.91
2022-09-28T01:19:18.156Z,98984.56
2022-09-28T01:22:04.040Z,98997.47
2022-09-28T01:24:46.500Z,99002.06
2022-09-28T01:27:34.674Z,98998.13
2022-09-28T01:30:08.543Z,99004.75
2022-09-28T01:32:56.523Z,99014.69
2022-09-28T01:35:33.692Z,99011.66
2022-09-28T01:38:14.025Z,99002.84
2022-09-28T01:40:42.171Z,99002.22
2022-09-28T01:43:23.042Z,98992.91
2022-09-28T01:45:53.501Z,98998.44
2022-09-28T01:48:31.250Z,99000.81
2022-09-28T01:51:01.990Z,99006.47
2022-09-28T01:53:37.232Z,99001.59
2022-09-28T01:56:24.111Z,99004.09
2022-09-28T01:59:08.028Z,98999.69
2022-09-28T02:02:03.749Z,99003.78
2022-09-28T02:04:41.855Z,99004.91
2022-09-28T02:07:14.348Z,98994.81
2022-09-28T02:09:54.713Z,98996.06
2022-09-28T02:12:34.145Z,99000.94
2022-09-28T02:15:14.586Z,99010.25
2022-09-28T02:17:42.405Z,99010.91
2022-09-28T02:20:10.985Z,99011.38
2022-09-28T02:22:51.686Z,99005.38
2022-09-28T02:25:47.697Z,99004.28
2022-09-28T02:28:15.124Z,99012.00
2022-09-28T02:30:44.285Z,99017.22
2022-09-28T02:33:33.130Z,99021.47
2022-09-28T02:36:01.151Z,99028.69
2022-09-28T02:38:28.650Z,99026.03
2022-09-28T02:41:06.047Z,99024.47
2022-09-28T02:43:52.221Z,99021.16
2022-09-28T02:46:37.949Z,99026.84
2022-09-28T02:49:22.546Z,99029.03
2022-09-28T02:52:04.983Z,99022.72
2022-09-28T02:54:41.419Z,99023.97
2022-09-28T02:57:36.305Z,99023.81
2022-09-28T03:00:11.095Z,99020.19
2022-09-28T03:02:44.198Z,99017.97
2022-09-28T03:05:17.604Z,99016.88
2022-09-28T03:08:06.756Z,99005.03
2022-09-28T03:11:01.059Z,99020.78
2022-09-28T03:13:29.935Z,99018.63
2022-09-28T03:16:11.793Z,99027.00
2022-09-28T03:18:39.511Z,99017.22
2022-09-28T03:21:07.196Z,99017.53
2022-09-28T03:23:34.425Z,99017.53
2022-09-28T03:26:01.758Z,99016.53
2022-09-28T03:28:29.385Z,99025.09
2022-09-28T03:30:57.105Z,99016.25
2022-09-28T03:33:24.255Z,99029.19
2022-09-28T03:35:52.020Z,99026.34
2022-09-28T03:38:19.741Z,99026.97
2022-09-28T03:40:58.383Z,99021.78
2022-09-28T03:43:28.040Z,99024.91
2022-09-28T03:45:57.666Z,99024.09
2022-09-28T03:48:32.647Z,99032.03
2022-09-28T03:51:08.134Z,99026.09
2022-09-28T03:53:36.991Z,99028.09
2022-09-28T03:56:08.167Z,99030.94
2022-09-28T03:58:35.948Z,99038.53
2022-09-28T04:01:14.182Z,99053.22
2022-09-28T04:03:45.650Z,99060.28
2022-09-28T04:06:14.596Z,99062.66
2022-09-28T04:08:43.431Z,99057.59
2022-09-28T04:11:12.420Z,99071.19
2022-09-28T04:13:40.992Z,99071.78
2022-09-28T04:16:10.662Z,99062.47
2022-09-28T04:18:38.273Z,99069.28
2022-09-28T04:21:10.471Z,99065.34
2022-09-28T04:23:39.958Z,99061.16
2022-09-28T04:26:14.235Z,99057.63
2022-09-28T04:28:41.598Z,99054.97
2022-09-28T04:31:14.813Z,99065.03
2022-09-28T04:33:42.269Z,99057.63
2022-09-28T04:36:09.878Z,99052.88
2022-09-28T04:38:52.340Z,99055.25
2022-09-28T04:41:21.516Z,99061.22
2022-09-28T04:43:49.856Z,99063.44
2022-09-28T04:46:17.446Z,99066.91
2022-09-28T04:48:45.260Z,99063.44
2022-09-28T04:51:12.681Z,99067.69
2022-09-28T04:53:40.118Z,99075.75
2022-09-28T04:56:11.745Z,99077.69
2022-09-28T04:58:39.764Z,99078.91
2022-09-28T05:01:11.292Z,99079.56
2022-09-28T05:03:38.734Z,99089.03
2022-09-28T05:06:15.085Z,99090.78
2022-09-28T05:08:43.168Z,99086.34
2022-09-28T05:11:12.947Z,99088.25
2022-09-28T05:13:44.131Z,99071.66
2022-09-28T05:16:14.039Z,99080.19
2022-09-28T05:18:49.246Z,99084.31
2022-09-28T05:21:16.894Z,99081.75
2022-09-28T05:23:52.764Z,99081.69
2022-09-28T05:26:20.067Z,99071.53
2022-09-28T05:28:47.315Z,99075.56
2022-09-28T05:31:14.590Z,99069.75
2022-09-28T05:33:41.767Z,99073.06
2022-09-28T05:36:11.443Z,99062.22
2022-09-28T05:38:39.058Z,99078.66
2022-09-28T05:41:07.030Z,99084.81
2022-09-28T05:43:34.610Z,99079.41
2022-09-28T05:46:01.955Z,99086.66
2022-09-28T05:48:29.324Z,99088.34
2022-09-28T05:50:57.000Z,99083.19
2022-09-28T05:53:24.672Z,99085.53
2022-09-28T05:55:51.986Z,99083.19
2022-09-28T05:58:20.045Z,99083.09
2022-09-28T06:00:47.558Z,99088.97
2022-09-28T06:03:15.103Z,99090.94
2022-09-28T06:05:42.378Z,99094.88
2022-09-28T06:08:10.599Z,99106.03
2022-09-28T06:10:38.421Z,99102.47
2022-09-28T06:13:06.034Z,99101.78
2022-09-28T06:15:35.409Z,99103.78
2022-09-28T06:18:09.750Z,99109.50
2022-09-28T06:20:39.568Z,99108.66
2022-09-28T06:23:07.290Z,99111.09
2022-09-28T06:25:34.807Z,99106.03
2022-09-28T06:28:04.815Z,99108.56
2022-09-28T06:30:34.758Z,99117.84
2022-09-28T06:33:02.500Z,99120.53
2022-09-28T06:35:31.126Z,99127.03
2022-09-28T06:37:59.920Z,99125.88
2022-09-28T06:40:28.141Z,99127.19
2022-09-28T06:42:59.856Z,99132.75
2022-09-28T06:45:29.931Z,99124.56
2022-09-28T06:48:01.481Z,99130.25
2022-09-28T06:50:31.936Z,99131.53
2022-09-28T06:53:00.895Z,99120.16
2022-09-28T06:55:28.551Z,99115.34
2022-09-28T06:58:04.654Z,99116.47
2022-09-28T07:00:35.859Z,99114.69
2022-09-28T07:03:04.178Z,99115.34
2022-09-28T07:05:33.815Z,99108.13
2022-09-28T07:08:01.323Z,99112.59
2022-09-28T07:10:30.009Z,99109.34
2022-09-28T07:12:59.749Z,99106.75
2022-09-28T07:15:26.948Z,99114.63
2022-09-28T07:18:02.828Z,99127.88
2022-09-28T07:20:33.291Z,99137.59
2022-09-28T07:23:16.308Z,99134.41
2022-09-28T07:25:46.144Z,99137.94
2022-09-28T07:28:14.224Z,99133.13
2022-09-28T07:30:42.329Z,99139.88
2022-09-28T07:33:12.805Z,99141.16
2022-09-28T07:35:40.393Z,99145.66
2022-09-28T07:38:08.514Z,99141.34
2022-09-28T07:40:36.390Z,99142.69
2022-09-28T07:43:07.075Z,99137.19
2022-09-28T07:45:34.402Z,99147.66
2022-09-28T07:48:02.113Z,99149.88
2022-09-28T07:50:29.588Z,99156.09
2022-09-28T07:55:10.126Z,99145.53
2022-09-28T07:57:37.408Z,99153.41
2022-09-28T08:00:06.269Z,99149.59
2022-09-28T08:02:33.630Z,99157.59
2022-09-28T08:05:02.004Z,99156.34
2022-09-28T08:07:29.499Z,99159.41
2022-09-28T08:09:56.742Z,99161.97
2022-09-28T08:12:24.189Z,99158.69
2022-09-28T08:14:51.568Z,99153.50
2022-09-28T08:17:18.973Z,99154.97
2022-09-28T08:19:46.411Z,99147.84
2022-09-28T08:22:14.498Z,99150.19
2022-09-28T08:24:41.970Z,99146.13
2022-09-28T08:27:09.254Z,99146.09
2022-09-28T08:29:37.529Z,99140.88
2022-09-28T08:32:06.443Z,99147.41
2022-09-28T08:34:41.431Z,99142.97
2022-09-28T08:37:09.593Z,99145.53
2022-09-28T08:39:37.182Z,99147.50
2022-09-28T08:42:34.838Z,99150.19
2022-09-28T08:45:12.530Z,99151.16
2022-09-28T08:48:18.451Z,99141.03
2022-09-28T08:50:55.244Z,99144.47
2022-09-28T08:53:52.796Z,99146.25
2022-09-28T08:57:01.701Z,99147.47
2022-09-28T08:59:42.922Z,99143.47
2022-09-28T09:02:32.806Z,99143.72
2022-09-28T09:05:06.315Z,99143.69
2022-09-28T09:07:56.986Z,99145.75
2022-09-28T09:10:56.451Z,99137.63
2022-09-28T09:13:45.206Z,99132.09
2022-09-28T09:16:40.324Z,99139.59
2022-09-28T09:19:32.775Z,99141.97
2022-09-28T09:22:04.986Z,99134.50
2022-09-28T09:24:50.002Z,99139.38
2022-09-28T09:27:42.953Z,99136.34
2022-09-28T09:30:17.843Z,99139.50
2022-09-28T09:33:09.534Z,99136.47
2022-09-28T09:35:39.916Z,99127.59
2022-09-28T09:38:35.940Z,99141.28
2022-09-28T09:44:10.024Z,99127.13
2022-09-28T09:46:46.861Z,99120.88
2022-09-28T09:49:40.743Z,99121.47
2022-09-28T09:52:19.673Z,99130.00
2022-09-28T09:55:08.245Z,99126.34
2022-09-28T09:57:43.978Z,99124.34
2022-09-28T10:00:15.464Z,99126.16
2022-09-28T10:02:45.885Z,99122.97
2022-09-28T10:05:13.332Z,99122.88
2022-09-28T10:07:53.772Z,99120.09
2022-09-28T10:10:51.932Z,99123.03
2022-09-28T10:13:19.719Z,99121.25
2022-09-28T10:15:47.302Z,99127.59
2022-09-28T10:18:17.770Z,99114.50
2022-09-28T10:20:45.379Z,99115.16
2022-09-28T10:23:26.944Z,99114.84
2022-09-28T10:26:00.156Z,99121.69
2022-09-28T10:28:42.938Z,99112.63
2022-09-28T10:31:39.777Z,99112.47
2022-09-28T10:34:10.589Z,99109.47
2022-09-28T10:36:50.344Z,99104.28
2022-09-28T10:39:32.139Z,99112.50
2022-09-28T10:42:01.911Z,99122.75
2022-09-28T10:44:32.578Z,99124.72
2022-09-28T10:47:08.947Z,99128.75
2022-09-28T10:49:47.054Z,99134.56
2022-09-28T10:52:40.672Z,99122.84
2022-09-28T10:55:31.595Z,99122.06
2022-09-28T10:58:23.909Z,99123.41
2022-09-28T11:00:51.565Z,99122.59
2022-09-28T11:03:27.520Z,99119.59
2022-09-28T11:06:02.076Z,99112.03
2022-09-28T11:08:44.613Z,99118.53
2022-09-28T11:11:15.597Z,99114.59
2022-09-28T11:13:47.092Z,99108.38
2022-09-28T11:16:37.064Z,99114.06
2022-09-28T11:19:28.589Z,99112.75
2022-09-28T11:21:56.137Z,99103.59
2022-09-28T11:24:24.707Z,99110.69
2022-09-28T11:26:55.478Z,99117.06
2022-09-28T11:29:38.513Z,99111.81
2022-09-28T11:32:14.934Z,99100.00
2022-09-28T11:34:59.150Z,99115.06
2022-09-28T11:37:30.520Z,99111.34
2022-09-28T11:40:16.921Z,99107.16
2022-09-28T11:43:16.878Z,99107.94
2022-09-28T11:46:16.917Z,99110.28
2022-09-28T11:48:50.761Z,99111.28
2022-09-28T11:51:27.286Z,99104.19
2022-09-28T11:54:18.690Z,99102.84
2022-09-28T11:56:50.490Z,99095.34
2022-09-28T11:59:27.470Z,99100.50
2022-09-28T12:02:10.653Z,99100.72
2022-09-28T12:04:52.420Z,99107.47
2022-09-28T12:07:25.009Z,99096.88
2022-09-28T12:10:01.130Z,99100.53
2022-09-28T12:12:34.380Z,99093.91
2022-09-28T12:15:42.151Z,99091.94
2022-09-28T12:18:49.455Z,99088.16
2022-09-28T12:21:35.184Z,99088.66
2022-09-28T12:24:12.093Z,99083.09
2022-09-28T12:26:56.579Z,99091.44
2022-09-28T12:29:40.010Z,99086.34
2022-09-28T12:32:41.626Z,99080.94
2022-09-28T12:35:15.113Z,99089.16
2022-09-28T12:37:45.475Z,99084.22
2022-09-28T12:40:35.586Z,99082.16
2022-09-28T12:43:11.444Z,99073.72
2022-09-28T12:46:11.057Z,99081.78
2022-09-28T12:49:36.664Z,99077.56
2022-09-28T12:51:41.264Z,99078.16
2022-09-28T12:54:41.213Z,99078.78
2022-09-28T12:57:38.031Z,99082.28
2022-09-28T13:00:19.921Z,99079.41
2022-09-28T13:03:21.216Z,99089.56
2022-09-28T13:06:13.664Z,99085.19
2022-09-28T13:09:10.336Z,99076.16
2022-09-28T13:11:50.211Z,99083.97
2022-09-28T13:14:52.307Z,99085.91
2022-09-28T13:17:45.140Z,99092.16
2022-09-28T13:20:48.644Z,99085.94
2022-09-28T13:23:29.774Z,99096.94
2022-09-28T13:26:21.351Z,99092.22
2022-09-28T13:28:51.040Z,99093.00
2022-09-28T13:31:22.072Z,99095.97
2022-09-28T13:33:53.066Z,99100.22
2022-09-28T13:36:30.402Z,99104.53
2022-09-28T13:38:59.719Z,99101.72
2022-09-28T13:41:47.039Z,99108.38
2022-09-28T13:44:14.533Z,99113.81
2022-09-28T13:47:09.930Z,99100.56
2022-09-28T13:49:37.370Z,99108.28
2022-09-28T13:52:10.108Z,99100.97
2022-09-28T13:55:14.477Z,99109.72
2022-09-28T13:57:44.610Z,99109.81
2022-09-28T14:00:12.202Z,99101.66
2022-09-28T14:02:45.921Z,99101.88
2022-09-28T14:05:22.660Z,99100.03
2022-09-28T14:08:08.508Z,99109.63
2022-09-28T14:10:54.532Z,99109.47
2022-09-28T14:13:40.708Z,99096.22
2022-09-28T14:16:23.791Z,99091.69
2022-09-28T14:18:56.793Z,99093.25
2022-09-28T14:21:51.506Z,99095.28
2022-09-28T14:25:13.079Z,99091.31
2022-09-28T14:28:18.025Z,99086.44
2022-09-28T14:30:49.400Z,99081.03
2022-09-28T14:33:16.743Z,99078.34
2022-09-28T14:35:49.424Z,99083.00
2022-09-28T14:38:24.487Z,99077.78
2022-09-28T14:41:03.630Z,99079.47
2022-09-28T14:43:34.290Z,99080.53
2022-09-28T14:46:25.119Z,99084.38
2022-09-28T14:48:56.587Z,99084.00
2022-09-28T14:51:27.114Z,99089.31
2022-09-28T14:54:21.577Z,99092.16
2022-09-28T14:57:16.315Z,99087.97
2022-09-28T14:59:44.919Z,99087.34
2022-09-28T15:02:12.235Z,99089.84
2022-09-28T15:05:07.951Z,99093.91
2022-09-28T15:07:51.596Z,99096.06
2022-09-28T15:10:27.797Z,99088.91
2022-09-28T15:12:56.062Z,99096.63
2022-09-28T15:15:29.636Z,99089.94
2022-09-28T15:18:33.414Z,99102.19
2022-09-28T15:21:00.980Z,99090.72
2022-09-28T15:23:42.999Z,99101.41
2022-09-28T15:26:28.475Z,99097.31
2022-09-28T15:28:55.988Z,99098.88
2022-09-28T15:31:28.191Z,99104.63
2022-09-28T15:33:56.523Z,99098.94
2022-09-28T15:36:30.915Z,99095.91
2022-09-28T15:39:17.103Z,99101.91
2022-09-28T15:41:47.419Z,99097.75
2022-09-28T15:44:17.932Z,99105.97
2022-09-28T15:46:47.031Z,99092.06
2022-09-28T15:49:33.629Z,99093.41
2022-09-28T15:52:05.047Z,99098.75
2022-09-28T15:54:41.557Z,99103.63
2022-09-28T15:57:29.308Z,99100.47
2022-09-28T15:59:56.839Z,99107.19
2022-09-28T16:02:24.582Z,99112.81
2022-09-28T16:04:54.236Z,99113.56
2022-09-28T16:07:30.870Z,99109.56
2022-09-28T16:10:02.689Z,99109.91
2022-09-28T16:12:51.580Z,99109.31
2022-09-28T16:15:29.101Z,99108.94
2022-09-28T16:18:22.068Z,99116.75
2022-09-28T16:20:52.320Z,99118.91
2022-09-28T16:23:31.977Z,99115.59
2022-09-28T16:26:02.932Z,99114.59
2022-09-28T16:28:34.561Z,99119.06
2022-09-28T16:31:24.032Z,99115.84
2022-09-28T16:34:11.511Z,99118.50
2022-09-28T16:36:42.064Z,99115.41
2022-09-28T16:39:10.297Z,99112.31
2022-09-28T16:41:40.705Z,99112.22
2022-09-28T16:44:40.549Z,99122.69
2022-09-28T16:47:08.308Z,99124.31
2022-09-28T16:49:39.555Z,99115.84
2022-09-28T16:52:13.869Z,99114.03
2022-09-28T16:54:43.989Z,99107.25
2022-09-28T16:57:13.328Z,99112.53
2022-09-28T16:59:41.187Z,99106.59
2022-09-28T17:02:45.605Z,99108.28
2022-09-28T17:05:14.900Z,99108.78
2022-09-28T17:07:44.278Z,99104.25
2022-09-28T17:10:28.607Z,99110.41
2022-09-28T17:12:55.868Z,99107.28
2022-09-28T17:15:23.149Z,99114.59
2022-09-28T17:17:50.791Z,99120.09
2022-09-28T17:20:25.376Z,99115.97
2022-09-28T17:22:52.983Z,99109.94
2022-09-28T17:25:23.277Z,99110.66
2022-09-28T17:27:51.659Z,99113.03
2022-09-28T17:30:23.512Z,99119.91
2022-09-28T17:32:53.882Z,99121.06
2022-09-28T17:35:25.636Z,99123.56
2022-09-28T17:37:53.282Z,99115.03
2022-09-28T17:40:29.172Z,99131.53
2022-09-28T17:42:57.598Z,99128.81
2022-09-28T17:45:27.381Z,99132.91
2022-09-28T17:47:56.089Z,99136.34
2022-09-28T17:50:26.721Z,99137.34
2022-09-28T17:52:54.655Z,99144.97
2022-09-28T17:55:25.109Z,99137.41
2022-09-28T17:57:52.908Z,99146.38
2022-09-28T18:00:20.117Z,99139.13
2022-09-28T18:02:47.477Z,99145.75
2022-09-28T18:05:14.878Z,99144.78
2022-09-28T18:07:47.298Z,99142.06
2022-09-28T18:10:19.927Z,99140.69
2022-09-28T18:12:48.372Z,99141.19
2022-09-28T18:15:16.394Z,99150.06
2022-09-28T18:17:44.045Z,99152.06
2022-09-28T18:20:12.518Z,99149.47
2022-09-28T18:22:40.024Z,99154.31
2022-09-28T18:25:08.213Z,99151.03
2022-09-28T18:27:35.510Z,99157.09
2022-09-28T18:30:04.285Z,99151.59
2022-09-28T18:32:34.437Z,99147.56
2022-09-28T18:35:01.993Z,99147.88
2022-09-28T18:37:29.447Z,99145.84
2022-09-28T18:39:56.786Z,99149.41
2022-09-28T18:42:23.962Z,99150.81
2022-09-28T18:44:51.293Z,99152.97
2022-09-28T18:47:18.686Z,99153.97
2022-09-28T18:49:46.819Z,99159.59
2022-09-28T18:52:14.227Z,99171.19
2022-09-28T18:54:41.914Z,99167.94
2022-09-28T18:57:09.381Z,99167.78
2022-09-28T18:59:36.655Z,99164.97
2022-09-28T19:02:04.542Z,99167.56
2022-09-28T19:04:31.853Z,99166.00
2022-09-28T19:06:59.116Z,99162.16
2022-09-28T19:09:26.908Z,99161.72
2022-09-28T19:11:56.849Z,99165.09
2022-09-28T19:14:24.053Z,99163.31
2022-09-28T19:16:53.947Z,99169.13
2022-09-28T19:19:21.186Z,99169.56
2022-09-28T19:21:50.872Z,99161.59
2022-09-28T19:24:19.055Z,99167.78
2022-09-28T19:26:46.793Z,99159.91
2022-09-28T19:29:14.940Z,99168.69
2022-09-28T19:31:43.478Z,99172.28
2022-09-28T19:34:13.515Z,99167.94
2022-09-28T19:36:42.691Z,99171.72
2022-09-28T19:39:14.473Z,99176.38
2022-09-28T19:41:44.917Z,99175.91
2022-09-28T19:44:16.494Z,99177.25
2022-09-28T19:46:44.363Z,99174.09
2022-09-28T19:49:14.989Z,99173.34
2022-09-28T19:52:01.671Z,99180.78
2022-09-28T19:54:34.393Z,99174.34
2022-09-28T19:57:04.469Z,99189.66
2022-09-28T19:59:31.810Z,99185.59
2022-09-28T20:01:59.203Z,99188.75
2022-09-28T20:04:26.998Z,99178.16
2022-09-28T20:06:54.660Z,99192.38
2022-09-28T20:09:22.141Z,99182.91
2022-09-28T20:11:49.384Z,99188.63
2022-09-28T20:14:16.911Z,99195.38
2022-09-28T20:16:45.234Z,99202.25
2022-09-28T20:19:13.313Z,99204.75
2022-09-28T20:21:40.976Z,99205.84
2022-09-28T20:24:11.591Z,99210.47
2022-09-28T20:26:38.960Z,99207.88
2022-09-28T20:29:07.690Z,99209.34
2022-09-28T20:31:36.476Z,99206.09
2022-09-28T20:34:05.522Z,99201.59
2022-09-28T20:36:33.671Z,99208.81
2022-09-28T20:39:02.479Z,99208.56
2022-09-28T20:41:32.227Z,99219.59
2022-09-28T20:44:04.134Z,99216.44
2022-09-28T20:46:33.163Z,99211.03
2022-09-28T20:49:00.964Z,99216.44
2022-09-28T20:51:28.579Z,99213.50
2022-09-28T20:54:01.016Z,99208.91
2022-09-28T20:56:32.285Z,99210.34
2022-09-28T20:58:59.831Z,99211.03
2022-09-28T21:01:28.784Z,99204.06
2022-09-28T21:04:01.680Z,99208.00
2022-09-28T21:06:31.342Z,99212.63
2022-09-28T21:08:59.299Z,99216.50
2022-09-28T21:11:28.487Z,99211.78
2022-09-28T21:13:57.990Z,99215.53
2022-09-28T21:16:27.782Z,99222.41
2022-09-28T21:18:55.746Z,99221.09
2022-09-28T21:21:24.458Z,99219.69
2022-09-28T21:23:58.802Z,99216.81
2022-09-28T21:26:30.562Z,99225.09
2022-09-28T21:29:00.973Z,99218.44
2022-09-28T21:31:57.285Z,99220.31
2022-09-28T21:34:24.917Z,99217.63
2022-09-28T21:36:52.483Z,99220.50
2022-09-28T21:39:20.256Z,99222.50
2022-09-28T21:41:48.023Z,99226.34
2022-09-28T21:44:15.586Z,99222.44
2022-09-28T21:46:43.366Z,99235.72
2022-09-28T21:49:11.146Z,99227.47
2022-09-28T21:51:41.675Z,99229.25
2022-09-28T21:54:09.338Z,99226.66
2022-09-28T21:56:36.703Z,99235.34
2022-09-28T21:59:04.242Z,99226.78
2022-09-28T22:01:36.700Z,99221.69
2022-09-28T22:04:04.115Z,99234.00
2022-09-28T22:06:31.412Z,99226.22
2022-09-28T22:08:59.370Z,99229.94
2022-09-28T22:11:28.453Z,99227.22
2022-09-28T22:13:58.362Z,99224.78
2022-09-28T22:16:28.775Z,99230.41
2022-09-28T22:18:56.858Z,99223.97
2022-09-28T22:21:26.998Z,99225.34
2022-09-28T22:23:57.473Z,99222.72
2022-09-28T22:26:26.320Z,99217.78
2022-09-28T22:28:59.527Z,99214.19
2022-09-28T22:31:32.859Z,99228.38
2022-09-28T22:34:00.972Z,99222.06
2022-09-28T22:36:29.215Z,99220.59
2022-09-28T22:38:57.352Z,99215.19
2022-09-28T22:41:24.824Z,99212.16
2022-09-28T22:43:53.641Z,99215.97
2022-09-28T22:46:26.751Z,99228.59
2022-09-28T22:48:56.898Z,99234.22
2022-09-28T22:51:26.278Z,99229.16
2022-09-28T22:53:54.688Z,99238.28
2022-09-28T22:56:22.566Z,99244.78
2022-09-28T22:58:50.450Z,99239.84
2022-09-28T23:01:20.164Z,99230.44
2022-09-28T23:03:48.685Z,99238.19
2022-09-28T23:06:18.153Z,99244.53
2022-09-28T23:08:46.385Z,99232.50
2022-09-28T23:11:13.718Z,99221.09
2022-09-28T23:13:41.050Z,99224.03
2022-09-28T23:16:12.112Z,99227.84
2022-09-28T23:18:40.030Z,99227.28
2022-09-28T23:21:11.870Z,99221.31
2022-09-28T23:23:39.355Z,99219.53
2022-09-28T23:26:20.821Z,99224.81
2022-09-28T23:28:48.585Z,99227.84
2022-09-28T23:31:19.275Z,99220.44
2022-09-28T23:33:47.066Z,99222.13
2022-09-28T23:36:15.314Z,99227.28
2022-09-28T23:38:43.173Z,99221.53
2022-09-28T23:41:10.852Z,99218.28
2022-09-28T23:43:38.895Z,99212.50
2022-09-28T23:46:07.421Z,99218.38
2022-09-28T23:48:34.789Z,99222.53
2022-09-28T23:51:02.528Z,99210.91
2022-09-28T23:53:30.212Z,99220.91
2022-09-28T23:55:57.943Z,99216.19
2022-09-28T23:58:25.524Z,99218.22
